Time;durP1;ratioP1;P1;durP2;ratioP2;P2;SDS_P1;SDS_P2;PMS_P1;PMS_P2;Temp;Humidity;BMP_temperature;BMP_pressure;BME280_temperature;BME280_humidity;BME280_pressure;Samples;Min_cycle;Max_cycle;Signal;HPM_P1;HPM_P2
2021/01/16 00:01:02;;;;;;;110.23;38.13;;;;;;;-16.04;75.78;92597.83;1805715;77;21183;-73
2021/01/16 00:03:30;;;;;;;104.90;37.40;;;;;;;-16.00;75.77;92604.88;1805269;77;21198;-72
2021/01/16 00:06:00;;;;;;;102.70;38.03;;;;;;;-15.93;75.74;92602.84;1763966;79;21438;-73
2021/01/16 00:08:28;;;;;;;90.47;34.60;;;;;;;-15.85;75.58;92600.79;1796624;79;21172;-72
2021/01/16 00:10:58;;;;;;;96.60;37.00;;;;;;;-15.80;75.49;92596.38;1717868;80;21179;-73
2021/01/16 00:13:29;;;;;;;105.70;38.57;;;;;;;-15.74;75.51;92595.38;1796942;77;21346;-73
2021/01/16 00:15:57;;;;;;;92.90;34.20;;;;;;;-15.67;75.18;92599.58;1842401;77;21155;-73
2021/01/16 00:18:25;;;;;;;80.00;31.03;;;;;;;-15.70;75.39;92602.94;1781204;80;21530;-72
2021/01/16 00:20:56;;;;;;;75.00;25.83;;;;;;;-15.64;75.54;92593.31;1821593;77;21160;-73
2021/01/16 00:23:28;;;;;;;73.43;28.17;;;;;;;-15.52;75.68;92598.30;1785260;80;21752;-71
2021/01/16 00:25:57;;;;;;;109.13;37.90;;;;;;;-15.42;75.55;92594.41;1809116;78;21143;-73
2021/01/16 00:28:30;;;;;;;143.40;44.37;;;;;;;-15.39;75.21;92593.90;1782971;80;21234;-73
2021/01/16 00:31:01;;;;;;;101.40;34.93;;;;;;;-15.36;75.13;92601.73;1842930;77;21348;-72
2021/01/16 00:33:33;;;;;;;99.90;34.57;;;;;;;-15.38;74.92;92598.09;1780193;80;21223;-72
2021/01/16 00:36:01;;;;;;;92.53;36.67;;;;;;;-15.41;75.01;92602.52;1845560;77;21164;-73
2021/01/16 00:38:30;;;;;;;105.30;40.23;;;;;;;-15.38;75.07;92596.80;1855624;77;21153;-73
2021/01/16 00:40:57;;;;;;;123.97;42.73;;;;;;;-15.33;75.11;92592.89;1784998;77;21128;-73
2021/01/16 00:43:25;;;;;;;98.20;34.73;;;;;;;-15.25;75.09;92598.91;1825689;77;21247;-73
2021/01/16 00:45:52;;;;;;;110.40;39.10;;;;;;;-15.21;74.96;92592.66;1779741;79;21203;-73
2021/01/16 00:48:22;;;;;;;85.47;30.90;;;;;;;-15.23;74.87;92596.02;1827211;77;21083;-73
2021/01/16 00:50:53;;;;;;;117.57;45.17;;;;;;;-15.25;75.03;92587.17;1787004;80;21103;-74
2021/01/16 00:53:23;;;;;;;81.27;29.20;;;;;;;-15.30;75.12;92585.08;1819255;78;21445;-73
2021/01/16 00:55:56;;;;;;;100.43;36.63;;;;;;;-15.34;75.32;92578.29;1774118;80;21259;-72
2021/01/16 00:58:29;;;;;;;92.20;34.50;;;;;;;-15.37;75.55;92578.02;1801910;77;22199;-74
2021/01/16 01:00:55;;;;;;;100.83;35.73;;;;;;;-15.38;75.54;92575.13;1805683;77;21178;-73
2021/01/16 01:03:25;;;;;;;69.83;26.50;;;;;;;-15.36;75.67;92574.36;1782645;80;21181;-74
2021/01/16 01:05:54;;;;;;;76.53;26.60;;;;;;;-15.32;75.72;92572.80;1820095;78;21609;-73
2021/01/16 01:08:28;;;;;;;101.17;38.60;;;;;;;-15.27;75.63;92572.81;1785055;80;22627;-71
2021/01/16 01:10:56;;;;;;;88.27;34.23;;;;;;;-15.27;75.62;92572.81;1847687;77;21222;-71
2021/01/16 01:13:24;;;;;;;138.37;50.87;;;;;;;-15.24;75.60;92574.38;1780081;80;21187;-72
2021/01/16 01:15:51;;;;;;;81.10;30.67;;;;;;;-15.22;75.55;92576.23;1845484;77;21131;-72
2021/01/16 01:18:20;;;;;;;80.40;32.70;;;;;;;-15.19;75.62;92567.89;1845766;77;21714;-72
2021/01/16 01:20:47;;;;;;;84.20;31.10;;;;;;;-15.16;75.60;92571.02;1784843;80;21191;-71
2021/01/16 01:23:15;;;;;;;79.73;30.03;;;;;;;-15.13;75.70;92569.98;1782933;77;21196;-71
2021/01/16 01:25:43;;;;;;;84.33;31.50;;;;;;;-15.07;75.76;92576.00;1774319;80;21244;-72
2021/01/16 01:28:10;;;;;;;110.90;37.60;;;;;;;-15.07;75.87;92571.56;1773779;80;21176;-73
2021/01/16 01:30:41;;;;;;;106.13;36.67;;;;;;;-15.04;75.93;92568.44;1791155;77;21151;-71
2021/01/16 01:33:15;;;;;;;116.93;39.37;;;;;;;-15.00;75.93;92565.58;1785161;80;21231;-72
2021/01/16 01:35:44;;;;;;;70.30;27.43;;;;;;;-14.95;75.96;92564.27;1817119;78;21175;-73
2021/01/16 01:38:17;;;;;;;79.57;28.93;;;;;;;-14.90;75.86;92567.39;1775725;80;21440;-73
2021/01/16 01:40:45;;;;;;;95.32;35.45;;;;;;;-14.89;75.98;92565.56;1854187;77;21123;-71
2021/01/16 01:43:14;;;;;;;58.37;20.90;;;;;;;-14.87;76.02;92560.36;1781890;80;21231;-73
2021/01/16 01:45:41;;;;;;;68.33;23.57;;;;;;;-14.80;76.01;92560.11;1826161;77;21198;-73
2021/01/16 01:48:10;;;;;;;59.30;23.37;;;;;;;-14.82;75.99;92559.58;1853953;77;21147;-72
2021/01/16 01:50:39;;;;;;;64.20;25.27;;;;;;;-14.80;76.09;92558.28;1774050;80;21143;-72
2021/01/16 01:53:06;;;;;;;47.87;22.03;;;;;;;-14.79;76.10;92562.97;1846639;77;21155;-73
2021/01/16 01:55:34;;;;;;;66.73;28.83;;;;;;;-14.73;76.17;92559.33;1849411;77;21614;-73
2021/01/16 01:58:03;;;;;;;78.93;33.27;;;;;;;-14.68;76.21;92563.23;1774443;78;21398;-72
2021/01/16 02:00:31;;;;;;;81.77;33.90;;;;;;;-14.60;76.25;92561.93;1853391;77;21653;-72
2021/01/16 02:03:00;;;;;;;89.03;34.17;;;;;;;-14.53;76.04;92552.79;1773902;80;21171;-72
2021/01/16 02:05:27;;;;;;;75.50;30.27;;;;;;;-14.51;75.84;92546.02;1759972;79;21663;-72
2021/01/16 02:07:55;;;;;;;84.30;32.10;;;;;;;-14.54;75.80;92551.76;1826621;77;21166;-72
2021/01/16 02:10:23;;;;;;;58.27;25.50;;;;;;;-14.52;75.86;92549.13;1764395;80;21219;-74
2021/01/16 02:12:54;;;;;;;49.87;19.00;;;;;;;-14.51;75.55;92544.19;1774503;80;21191;-74
2021/01/16 02:18:01;;;;;;;41.30;16.67;;;;;;;-14.59;75.32;92545.22;1834017;77;21179;-72
2021/01/16 02:20:34;;;;;;;50.07;20.60;;;;;;;-14.64;75.40;92541.31;1760081;80;21183;-73
2021/01/16 02:23:13;;;;;;;47.70;18.53;;;;;;;-14.62;75.77;92549.16;1802222;79;21782;-72
2021/01/16 02:25:55;;;;;;;71.57;27.20;;;;;;;-14.57;75.95;92554.36;1810585;77;21709;-72
2021/01/16 02:28:24;;;;;;;75.50;27.13;;;;;;;-14.52;75.80;92554.34;1803308;77;21139;-71
2021/01/16 02:30:53;;;;;;;60.27;24.50;;;;;;;-14.48;75.69;92550.66;1785030;80;21239;-72
2021/01/16 02:33:23;;;;;;;58.50;22.37;;;;;;;-14.47;75.43;92550.94;1787334;78;21218;-73
2021/01/16 02:36:25;;;;;;;50.03;20.87;;;;;;;-14.49;75.50;92551.19;1783644;80;21808;-73
2021/01/16 02:39:20;;;;;;;97.77;38.43;;;;;;;-14.45;75.51;92552.75;1780849;79;21207;-73
2021/01/16 02:42:13;;;;;;;92.85;35.35;;;;;;;-14.47;75.43;92549.11;1784233;80;21153;-73
2021/01/16 02:45:01;;;;;;;64.77;26.13;;;;;;;-14.47;75.52;92554.33;1842814;77;21044;-72
2021/01/16 02:47:40;;;;;;;62.00;23.00;;;;;;;-14.48;75.69;92551.47;1784533;80;21240;-71
2021/01/16 02:50:09;;;;;;;65.97;27.00;;;;;;;-14.48;75.58;92552.77;1837979;77;23215;-72
2021/01/16 02:52:46;;;;;;;72.53;26.87;;;;;;;-14.52;75.48;92552.27;1843460;77;21173;-72
2021/01/16 02:55:15;;;;;;;80.83;32.77;;;;;;;-14.55;75.63;92550.98;1783667;80;21152;-74
2021/01/16 02:57:43;;;;;;;79.93;29.47;;;;;;;-14.58;75.78;92543.66;1848524;77;21159;-73
2021/01/16 03:00:13;;;;;;;81.10;30.07;;;;;;;-14.57;75.95;92543.14;1774375;80;21274;-72
2021/01/16 03:02:40;;;;;;;60.00;21.33;;;;;;;-14.57;76.09;92547.83;1774932;80;21257;-73
2021/01/16 03:05:09;;;;;;;48.23;18.30;;;;;;;-14.53;76.21;92539.73;1821420;77;21201;-73
2021/01/16 03:07:36;;;;;;;45.37;17.00;;;;;;;-14.52;76.23;92539.98;1826085;77;21160;-72
2021/01/16 03:10:10;;;;;;;32.67;13.17;;;;;;;-14.48;76.35;92546.25;1784840;77;21238;-73
2021/01/16 03:12:38;;;;;;;27.80;12.40;;;;;;;-14.43;76.49;92539.45;1784975;80;21209;-72
2021/01/16 03:15:09;;;;;;;68.07;28.17;;;;;;;-14.42;76.37;92537.88;1845428;77;21454;-71
2021/01/16 03:17:51;;;;;;;125.23;47.50;;;;;;;-14.44;76.56;92541.25;1853639;77;21123;-74
2021/01/16 03:20:23;;;;;;;157.00;55.90;;;;;;;-14.41;76.67;92548.56;1850846;77;21195;-73
2021/01/16 03:22:53;;;;;;;133.53;46.97;;;;;;;-14.34;76.73;92548.30;1783585;80;21101;-72
2021/01/16 03:25:23;;;;;;;58.40;23.50;;;;;;;-14.28;76.91;92548.05;1843140;77;21202;-73
2021/01/16 03:27:54;;;;;;;46.23;21.63;;;;;;;-14.22;76.88;92538.35;1855606;77;21353;-72
2021/01/16 03:30:22;;;;;;;53.77;23.77;;;;;;;-14.20;76.44;92537.58;1773210;80;21175;-73
2021/01/16 03:32:50;;;;;;;50.43;20.10;;;;;;;-14.18;76.35;92541.22;1852284;77;21154;-71
2021/01/16 03:35:21;;;;;;;52.53;20.67;;;;;;;-14.17;76.38;92537.05;1778210;80;21318;-72
2021/01/16 03:37:50;;;;;;;53.30;21.37;;;;;;;-14.15;76.08;92543.31;1831809;77;21210;-73
2021/01/16 03:40:17;;;;;;;52.80;23.13;;;;;;;-14.15;75.98;92540.70;1782939;79;21291;-72
2021/01/16 03:42:45;;;;;;;57.33;23.77;;;;;;;-14.16;75.83;92545.14;1819615;78;21167;-73
2021/01/16 03:45:16;;;;;;;75.37;30.93;;;;;;;-14.14;75.89;92548.26;1778926;78;21942;-72
2021/01/16 03:47:44;;;;;;;51.33;20.30;;;;;;;-14.11;76.05;92543.81;1837012;77;21174;-73
2021/01/16 03:50:12;;;;;;;43.03;17.83;;;;;;;-14.12;75.91;92537.03;1779141;80;21191;-73
2021/01/16 03:52:40;;;;;;;41.07;18.63;;;;;;;-14.14;75.78;92535.20;1828983;77;21739;-73
2021/01/16 03:55:09;;;;;;;42.83;18.67;;;;;;;-14.14;75.83;92539.12;1785342;78;21190;-73
2021/01/16 03:57:37;;;;;;;39.27;16.90;;;;;;;-14.15;75.66;92547.23;1807478;77;21177;-72
2021/01/16 04:00:08;;;;;;;34.70;14.10;;;;;;;-14.16;75.86;92545.14;1784619;78;21155;-73
2021/01/16 04:02:35;;;;;;;56.50;22.97;;;;;;;-14.17;75.89;92534.44;1809779;78;21151;-73
2021/01/16 04:05:04;;;;;;;42.17;18.13;;;;;;;-14.17;76.01;92541.50;1815749;77;21598;-72
2021/01/16 04:07:32;;;;;;;32.13;14.90;;;;;;;-14.14;76.25;92548.26;1788104;77;21187;-72
2021/01/16 04:10:00;;;;;;;35.67;15.37;;;;;;;-14.09;76.45;92552.71;1784964;80;21609;-72
2021/01/16 04:12:28;;;;;;;30.87;11.40;;;;;;;-14.06;76.69;92554.27;1808448;78;21271;-73
2021/01/16 04:14:56;;;;;;;35.50;14.90;;;;;;;-13.98;76.84;92552.95;1782578;80;21165;-72
2021/01/16 04:17:23;;;;;;;37.43;14.53;;;;;;;-13.97;76.25;92552.67;1842900;77;21360;-73
2021/01/16 04:19:51;;;;;;;36.63;13.70;;;;;;;-13.97;76.16;92559.73;1842516;77;21230;-73
2021/01/16 04:22:20;;;;;;;37.70;13.60;;;;;;;-13.97;75.99;92559.20;1843203;77;20981;-72
2021/01/16 04:24:47;;;;;;;43.40;18.33;;;;;;;-14.00;76.02;92557.11;1784314;80;21140;-72
2021/01/16 04:27:14;;;;;;;36.53;17.13;;;;;;;-14.02;76.48;92555.31;1849995;77;21147;-72
2021/01/16 04:29:42;;;;;;;35.93;15.03;;;;;;;-14.00;76.44;92551.11;1851242;77;21442;-73
2021/01/16 04:32:10;;;;;;;48.23;18.40;;;;;;;-14.00;76.65;92559.73;1784396;78;21288;-73
2021/01/16 04:34:37;;;;;;;41.50;16.60;;;;;;;-13.99;76.69;92564.42;1842211;77;21327;-74
2021/01/16 04:37:05;;;;;;;50.77;20.13;;;;;;;-13.96;76.80;92553.45;1855473;77;21152;-73
2021/01/16 04:39:33;;;;;;;57.73;25.33;;;;;;;-13.97;76.64;92553.98;1779620;77;21200;-73
2021/01/16 04:42:02;;;;;;;58.50;24.40;;;;;;;-13.98;77.00;92557.64;1831252;77;22387;-73
2021/01/16 04:44:35;;;;;;;63.90;26.90;;;;;;;-13.95;76.99;92552.42;1754391;79;21290;-72
2021/01/16 04:47:04;;;;;;;63.10;25.92;;;;;;;-13.95;77.00;92551.12;1843978;77;21583;-73
2021/01/16 04:49:32;;;;;;;51.27;21.60;;;;;;;-13.91;77.12;92555.26;1844164;77;21167;-73
2021/01/16 04:52:00;;;;;;;55.67;22.17;;;;;;;-13.83;77.36;92560.74;1845396;77;21151;-72
2021/01/16 04:54:27;;;;;;;58.10;23.53;;;;;;;-13.75;77.39;92553.66;1782303;80;21796;-72
2021/01/16 04:56:55;;;;;;;59.77;25.73;;;;;;;-13.71;77.25;92561.22;1816500;77;21171;-73
2021/01/16 04:59:23;;;;;;;137.23;49.43;;;;;;;-13.67;77.27;92561.47;1848677;77;22408;-73
2021/01/16 05:01:51;;;;;;;111.80;43.73;;;;;;;-13.62;77.25;92559.36;1853064;77;21183;-73
2021/01/16 05:04:24;;;;;;;95.53;37.37;;;;;;;-13.56;77.33;92563.53;1844278;77;21194;-72
2021/01/16 05:06:52;;;;;;;70.37;28.87;;;;;;;-13.45;77.28;92567.66;1854250;77;21237;-74
2021/01/16 05:09:20;;;;;;;66.70;28.57;;;;;;;-13.42;77.14;92571.06;1846377;77;21203;-74
2021/01/16 05:11:56;;;;;;;73.10;29.50;;;;;;;-13.43;77.02;92566.08;1849769;77;21206;-75
2021/01/16 05:14:26;;;;;;;62.80;26.00;;;;;;;-13.40;77.08;92566.86;1851892;77;21780;-74
2021/01/16 05:16:59;;;;;;;71.50;27.90;;;;;;;-13.33;77.12;92567.35;1776384;80;21215;-73
2021/01/16 05:19:32;;;;;;;78.70;29.73;;;;;;;-13.29;76.94;92565.23;1855572;77;21178;-74
2021/01/16 05:22:02;;;;;;;70.62;28.35;;;;;;;-13.27;76.92;92569.68;1773808;80;21132;-74
2021/01/16 05:24:29;;;;;;;59.47;25.00;;;;;;;-13.26;76.88;92567.31;1847899;77;21150;-74
2021/01/16 05:27:07;;;;;;;60.57;24.97;;;;;;;-13.25;76.95;92563.64;1808768;77;21183;-74
2021/01/16 05:29:35;;;;;;;40.33;18.13;;;;;;;-13.26;77.19;92566.00;1806475;77;21444;-73
2021/01/16 05:32:05;;;;;;;38.13;17.73;;;;;;;-13.22;77.74;92568.83;1781599;80;21369;-74
2021/01/16 05:34:33;;;;;;;40.13;17.20;;;;;;;-13.13;78.14;92571.13;1820454;78;21099;-73
2021/01/16 05:37:02;;;;;;;41.43;16.90;;;;;;;-12.98;78.25;92569.73;1854586;77;21957;-73
2021/01/16 05:39:32;;;;;;;36.37;18.60;;;;;;;-12.88;78.21;92568.91;1785351;80;21202;-74
2021/01/16 05:42:04;;;;;;;41.37;18.07;;;;;;;-12.83;78.18;92570.70;1812277;78;21222;-73
2021/01/16 05:44:33;;;;;;;37.57;16.43;;;;;;;-12.78;78.22;92566.76;1776366;78;22656;-74
2021/01/16 05:47:01;;;;;;;41.37;18.53;;;;;;;-12.70;78.22;92568.02;1850675;77;21174;-75
2021/01/16 05:49:29;;;;;;;46.97;19.77;;;;;;;-12.60;78.13;92566.08;1771142;80;21242;-74
2021/01/16 05:51:58;;;;;;;58.93;23.40;;;;;;;-12.54;78.03;92560.29;1778493;77;21231;-75
2021/01/16 05:54:28;;;;;;;50.10;24.57;;;;;;;-12.52;78.02;92558.97;1795869;77;21288;-75
2021/01/16 05:56:56;;;;;;;50.03;22.37;;;;;;;-12.51;77.99;92563.67;1815189;77;22610;-76
2021/01/16 05:59:26;;;;;;;47.70;21.27;;;;;;;-12.46;78.07;92568.87;1776422;80;21143;-74
2021/01/16 06:01:54;;;;;;;51.80;22.03;;;;;;;-12.39;78.07;92575.89;1792754;78;21187;-76
2021/01/16 06:04:22;;;;;;;42.23;19.47;;;;;;;-12.35;78.19;92586.60;1773781;80;21200;-74
2021/01/16 06:06:50;;;;;;;55.17;21.43;;;;;;;-12.31;78.18;92575.30;1787592;77;21648;-73
2021/01/16 06:09:20;;;;;;;48.63;20.80;;;;;;;-12.28;78.14;92579.21;1748792;80;21430;-75
2021/01/16 06:11:50;;;;;;;44.03;19.40;;;;;;;-12.25;78.05;92580.75;1804759;77;21172;-74
2021/01/16 06:14:18;;;;;;;47.83;21.30;;;;;;;-12.20;77.92;92585.17;1851822;77;21689;-74
2021/01/16 06:16:53;;;;;;;37.03;15.47;;;;;;;-12.18;77.76;92585.69;1741039;80;39459;-73
2021/01/16 06:19:22;;;;;;;28.00;12.00;;;;;;;-12.18;77.78;92590.13;1785465;80;21202;-74
2021/01/16 06:21:50;;;;;;;21.33;9.57;;;;;;;-12.14;77.73;92591.94;1839242;77;22225;-73
2021/01/16 06:24:23;;;;;;;16.47;8.50;;;;;;;-12.09;77.55;92597.66;1783084;80;21244;-73
2021/01/16 06:26:58;;;;;;;19.47;9.30;;;;;;;-12.07;77.32;92598.96;1840592;77;21199;-74
2021/01/16 06:29:31;;;;;;;22.87;9.93;;;;;;;-12.05;77.14;92598.14;1841215;77;21179;-73
2021/01/16 06:32:10;;;;;;;13.90;7.67;;;;;;;-12.00;76.94;92597.30;1785762;80;21220;-73
2021/01/16 06:34:40;;;;;;;18.87;8.13;;;;;;;-11.99;76.86;92598.89;1854803;77;21340;-75
2021/01/16 06:37:13;;;;;;;25.43;9.63;;;;;;;-11.99;76.63;92596.27;1774174;80;21125;-75
2021/01/16 06:39:47;;;;;;;26.20;10.93;;;;;;;-11.96;76.49;92602.25;1849895;77;21457;-75
2021/01/16 06:42:22;;;;;;;29.67;12.45;;;;;;;-11.94;76.44;92610.63;1847598;77;21162;-74
2021/01/16 06:45:10;;;;;;;28.27;13.60;;;;;;;-11.90;76.23;92612.95;1775403;80;21697;-74
2021/01/16 06:47:38;;;;;;;27.37;12.33;;;;;;;-11.89;75.90;92615.04;1850796;77;21658;-73
2021/01/16 06:50:07;;;;;;;24.97;11.30;;;;;;;-11.92;75.83;92610.34;1843613;77;21183;-73
2021/01/16 06:52:38;;;;;;;33.00;13.70;;;;;;;-11.95;75.52;92613.55;1853150;77;21465;-74
2021/01/16 06:55:07;;;;;;;21.97;10.83;;;;;;;-11.99;75.52;92608.06;1811716;77;21170;-76
2021/01/16 06:57:34;;;;;;;24.73;11.33;;;;;;;-11.98;75.53;92607.53;1780727;78;21199;-74
2021/01/16 07:00:08;;;;;;;26.73;12.47;;;;;;;-12.01;75.62;92610.95;1810131;78;21812;-76
2021/01/16 07:02:40;;;;;;;26.93;11.30;;;;;;;-11.98;75.56;92614.09;1777212;77;21040;-76
2021/01/16 07:05:10;;;;;;;32.90;12.93;;;;;;;-11.98;75.46;92619.33;1852792;77;21999;-76
2021/01/16 07:07:40;;;;;;;25.87;12.60;;;;;;;-11.97;75.42;92615.64;1719000;82;21577;-74
2021/01/16 07:10:18;;;;;;;29.93;12.83;;;;;;;-11.95;75.39;92617.47;1800846;78;21178;-75
2021/01/16 07:12:48;;;;;;;25.30;12.00;;;;;;;-11.92;75.11;92604.59;1774331;80;21274;-76
2021/01/16 07:15:17;;;;;;;24.97;11.00;;;;;;;-11.89;75.07;92612.42;1846491;77;21198;-76
2021/01/16 07:17:44;;;;;;;24.57;11.47;;;;;;;-11.88;74.94;92617.41;1771861;80;21456;-77
2021/01/16 07:20:13;;;;;;;23.20;10.47;;;;;;;-11.88;74.89;92621.34;1801462;79;21522;-75
2021/01/16 07:22:43;;;;;;;25.90;11.50;;;;;;;-11.83;74.85;92616.00;1809641;78;21473;-74
2021/01/16 07:25:14;;;;;;;27.40;10.77;;;;;;;-11.79;74.76;92621.48;1766185;77;21419;-76
2021/01/16 07:27:42;;;;;;;28.97;13.37;;;;;;;-11.75;74.72;92616.71;1806480;78;21199;-76
2021/01/16 07:30:12;;;;;;;28.07;12.67;;;;;;;-11.68;74.76;92616.39;1774973;80;21128;-77
2021/01/16 07:32:44;;;;;;;28.97;12.77;;;;;;;-11.61;74.54;92606.89;1841225;77;21112;-75
2021/01/16 07:35:16;;;;;;;31.03;12.60;;;;;;;-11.52;74.34;92608.61;1849330;77;21549;-78
2021/01/16 07:37:50;;;;;;;27.80;13.80;;;;;;;-11.38;74.43;92613.98;1767813;80;21223;-77
2021/01/16 07:40:28;;;;;;;36.70;16.90;;;;;;;-11.13;74.59;92617.36;1793462;77;21159;-77
2021/01/16 07:42:59;;;;;;;31.03;15.17;;;;;;;-10.87;73.90;92621.77;1783175;80;21661;-77
2021/01/16 07:45:31;;;;;;;33.63;14.10;;;;;;;-10.63;73.75;92619.12;1811575;77;21183;-75
2021/01/16 07:48:04;;;;;;;21.83;11.30;;;;;;;-10.45;72.55;92617.03;1768410;80;21200;-76
2021/01/16 07:50:37;;;;;;;27.27;12.00;;;;;;;-10.35;71.77;92616.08;1739570;78;22714;-75
2021/01/16 07:53:17;;;;;;;22.50;10.67;;;;;;;-10.26;71.45;92614.92;1795414;78;21196;-76
2021/01/16 07:56:00;;;;;;;;;;;;;;;;;;;;;
2021/01/16 07:58:49;;;;;;;26.70;12.70;;;;;;;-9.84;70.76;92623.17;1824823;77;21337;-76
2021/01/16 08:01:29;;;;;;;25.70;12.43;;;;;;;-9.54;69.67;92623.96;1762071;81;21185;-75
2021/01/16 08:04:29;;;;;;;21.27;11.40;;;;;;;-9.10;69.22;92625.79;1715908;81;21701;-76
2021/01/16 08:07:11;;;;;;;21.90;11.60;;;;;;;-8.54;68.45;92626.53;1719891;80;21295;-75
2021/01/16 08:09:54;;;;;;;21.20;10.33;;;;;;;-7.86;67.29;92622.86;1772051;80;21159;-76
2021/01/16 08:12:25;;;;;;;17.97;9.53;;;;;;;-7.26;65.87;92621.12;1767375;80;21171;-75
2021/01/16 08:14:54;;;;;;;20.93;9.70;;;;;;;-6.69;63.45;92621.75;1795179;78;21189;-76
2021/01/16 08:17:37;;;;;;;32.73;13.60;;;;;;;-6.37;62.40;92627.16;1795209;79;21374;-74
2021/01/16 08:20:28;;;;;;;39.97;18.87;;;;;;;-6.11;61.53;92620.03;1795110;79;21193;-75
2021/01/16 08:22:57;;;;;;;35.27;15.90;;;;;;;-5.89;59.67;92620.40;1774127;79;21193;-76
2021/01/16 08:25:26;;;;;;;34.87;15.70;;;;;;;-5.72;58.70;92622.80;1795022;78;21229;-74
2021/01/16 08:27:55;;;;;;;24.73;13.90;;;;;;;-5.64;57.57;92620.16;1795857;79;21270;-77
2021/01/16 08:30:26;;;;;;;27.40;14.30;;;;;;;-5.56;56.99;92624.44;1834875;77;21250;-77
2021/01/16 08:33:06;;;;;;;24.70;12.97;;;;;;;-5.43;56.24;92621.59;1805456;77;21127;-78
2021/01/16 08:35:48;;;;;;;23.00;11.87;;;;;;;-5.35;55.95;92629.29;1781442;78;21172;-78
2021/01/16 08:38:21;;;;;;;22.63;11.90;;;;;;;-5.41;55.38;92623.39;1776663;80;21156;-75
2021/01/16 08:41:02;;;;;;;23.83;12.20;;;;;;;-5.44;54.98;92629.31;1772495;80;21677;-76
2021/01/16 08:43:34;;;;;;;18.33;10.27;;;;;;;-5.54;54.65;92630.19;1772558;80;21412;-77
2021/01/16 08:46:32;;;;;;;23.37;11.80;;;;;;;-5.65;55.19;92630.50;1772332;80;21173;-78
2021/01/16 08:49:11;;;;;;;24.63;10.90;;;;;;;-5.59;54.68;92635.11;1773953;80;21134;-76
2021/01/16 08:51:44;;;;;;;27.67;13.53;;;;;;;-5.67;54.14;92640.64;1732012;82;21204;-77
2021/01/16 08:54:21;;;;;;;23.27;11.83;;;;;;;-5.76;54.55;92639.86;1768820;80;21655;-76
2021/01/16 08:56:51;;;;;;;20.13;10.37;;;;;;;-5.55;55.04;92641.33;1719744;80;21663;-77
2021/01/16 08:59:33;;;;;;;19.40;9.70;;;;;;;-5.05;54.82;92641.30;1732086;82;21191;-77
2021/01/16 09:02:15;;;;;;;16.77;10.40;;;;;;;-4.50;53.67;92644.45;1734073;81;21220;-78
2021/01/16 09:04:45;;;;;;;18.10;11.03;;;;;;;-3.96;52.19;92650.68;1728194;80;21535;-79
2021/01/16 09:07:22;;;;;;;20.20;11.53;;;;;;;-3.61;49.95;92642.47;1804662;78;21185;-80
2021/01/16 09:09:54;;;;;;;17.42;9.18;;;;;;;-3.30;49.77;92636.72;1778892;80;21419;-80
2021/01/16 09:12:39;;;;;;;21.33;11.80;;;;;;;-3.01;48.70;92637.67;1804729;79;21180;-78
2021/01/16 09:18:14;;;;;;;18.60;11.20;;;;;;;-2.81;48.49;92630.19;1884828;76;22855;-77
2021/01/16 09:20:45;;;;;;;21.68;11.93;;;;;;;-2.64;47.62;92629.75;1827744;77;21206;-77
2021/01/16 09:23:41;;;;;;;19.57;12.43;;;;;;;-2.63;47.04;92633.44;1782699;80;21360;-78
2021/01/16 09:26:10;;;;;;;23.00;13.20;;;;;;;-2.98;46.66;92634.36;1692427;83;21233;-79
2021/01/16 09:28:56;;;;;;;26.77;14.33;;;;;;;-3.66;47.52;92637.34;1738125;80;21187;-77
2021/01/16 09:31:27;;;;;;;24.82;14.30;;;;;;;-4.26;48.56;92639.31;1778028;78;21528;-78
2021/01/16 09:34:00;;;;;;;25.68;13.88;;;;;;;-4.84;49.02;92634.77;1827649;78;21159;-78
2021/01/16 09:36:41;;;;;;;32.53;18.27;;;;;;;-5.41;50.17;92634.55;1820168;78;21194;-78
2021/01/16 09:39:18;;;;;;;32.70;15.47;;;;;;;-5.90;51.32;92633.97;1788405;79;21708;-76
2021/01/16 09:41:50;;;;;;;32.27;15.50;;;;;;;-6.40;52.22;92635.16;1776488;79;21726;-75
2021/01/16 09:44:41;;;;;;;30.50;14.20;;;;;;;-6.79;52.92;92629.41;1772937;80;21191;-77
2021/01/16 09:47:33;;;;;;;24.13;13.77;;;;;;;-7.04;54.05;92626.12;1766481;80;21163;-79
2021/01/16 09:50:14;;;;;;;30.37;15.40;;;;;;;-7.30;54.65;92620.17;1775190;80;21808;-77
2021/01/16 09:52:55;;;;;;;26.67;14.30;;;;;;;-7.49;54.54;92609.81;1776539;80;21269;-77
2021/01/16 09:55:32;;;;;;;28.63;13.80;;;;;;;-7.63;54.97;92614.42;1779641;77;21203;-77
2021/01/16 09:58:01;;;;;;;33.97;18.37;;;;;;;-7.69;55.15;92609.02;1820320;77;21237;-78
2021/01/16 10:00:35;;;;;;;58.60;22.57;;;;;;;-7.80;55.30;92602.42;1851545;77;21133;-80
2021/01/16 10:03:08;;;;;;;61.23;21.30;;;;;;;-7.89;55.57;92601.05;1852398;76;21193;-78
2021/01/16 10:05:38;;;;;;;44.67;19.20;;;;;;;-8.06;55.69;92599.84;1829102;77;21183;-79
2021/01/16 10:08:07;;;;;;;40.03;20.50;;;;;;;-8.20;55.88;92597.01;1788955;80;21188;-80
2021/01/16 10:10:47;;;;;;;33.40;17.43;;;;;;;-8.32;56.46;92593.04;1786796;79;21158;-77
2021/01/16 10:13:30;;;;;;;26.03;12.73;;;;;;;-8.31;57.72;92601.76;1777675;80;21343;-77
2021/01/16 10:16:02;;;;;;;23.87;11.27;;;;;;;-8.25;58.02;92591.86;1777975;78;21337;-79
2021/01/16 10:18:31;;;;;;;20.60;9.43;;;;;;;-8.24;58.46;92594.19;1825660;78;21819;-77
2021/01/16 10:21:12;;;;;;;30.63;12.90;;;;;;;-8.25;58.94;92595.27;1815557;78;21188;-79
2021/01/16 10:23:41;;;;;;;28.60;14.10;;;;;;;-8.29;59.01;92596.95;1812608;79;21233;-82
2021/01/16 10:26:16;;;;;;;24.43;12.57;;;;;;;-8.31;59.16;92585.39;1813085;79;21197;-78
2021/01/16 10:28:55;;;;;;;18.05;8.65;;;;;;;-8.26;59.69;92579.76;1813288;79;21777;-80
2021/01/16 10:31:24;;;;;;;21.53;10.40;;;;;;;-8.17;59.99;92574.77;1813428;79;21626;-77
2021/01/16 10:33:52;;;;;;;17.67;8.03;;;;;;;-8.12;59.33;92564.66;1812966;79;21177;-77
2021/01/16 10:36:19;;;;;;;17.90;9.80;;;;;;;-8.12;58.87;92564.12;1778879;80;21214;-78
2021/01/16 10:38:52;;;;;;;21.10;10.57;;;;;;;-8.10;58.72;92571.17;1779686;80;21168;-77
2021/01/16 10:41:33;;;;;;;18.70;10.80;;;;;;;-8.03;58.88;92569.98;1802339;78;22103;-76
2021/01/16 10:44:06;;;;;;;26.13;11.53;;;;;;;-7.97;59.09;92570.09;1817876;78;21220;-79
2021/01/16 10:46:43;;;;;;;26.27;12.13;;;;;;;-7.91;59.04;92567.58;1814099;79;21173;-78
2021/01/16 10:49:27;;;;;;;24.67;11.67;;;;;;;-7.89;58.81;92554.87;1813449;79;21184;-78
2021/01/16 10:52:04;;;;;;;16.13;6.93;;;;;;;-7.93;58.73;92551.28;1781660;80;21627;-78
2021/01/16 10:54:31;;;;;;;12.53;6.73;;;;;;;-7.90;59.60;92559.89;1779969;80;21520;-77
2021/01/16 10:57:06;;;;;;;14.13;7.13;;;;;;;-7.92;60.22;92550.97;1799246;77;21054;-76
2021/01/16 10:59:38;;;;;;;14.73;7.80;;;;;;;-7.89;60.40;92550.91;1832397;77;21219;-77
2021/01/16 11:02:15;;;;;;;10.67;5.73;;;;;;;-7.90;60.37;92554.09;1789245;78;21186;-78
2021/01/16 11:04:45;;;;;;;10.23;4.87;;;;;;;-7.95;59.61;92548.16;1821810;76;21191;-77
2021/01/16 11:07:13;;;;;;;10.47;4.53;;;;;;;-8.11;59.82;92539.29;1845223;76;21240;-78
2021/01/16 11:09:43;;;;;;;8.03;3.33;;;;;;;-8.20;60.04;92542.39;1819723;78;21167;-77
2021/01/16 11:12:11;;;;;;;17.33;7.67;;;;;;;-8.28;60.84;92540.48;1795967;77;21179;-75
2021/01/16 11:14:42;;;;;;;8.93;4.47;;;;;;;-8.39;60.93;92547.09;1833728;77;21503;-79
2021/01/16 11:17:12;;;;;;;7.60;4.57;;;;;;;-8.49;61.11;92546.03;1849154;77;21661;-76
2021/01/16 11:19:46;;;;;;;6.30;3.90;;;;;;;-8.58;61.29;92535.39;1848031;76;21339;-78
2021/01/16 11:22:20;;;;;;;8.50;4.30;;;;;;;-8.65;61.78;92542.93;1848449;76;21245;-77
2021/01/16 11:25:08;;;;;;;7.43;4.13;;;;;;;-8.66;61.73;92539.52;1814786;79;21184;-77
2021/01/16 11:27:36;;;;;;;9.67;4.33;;;;;;;-8.64;62.26;92537.92;1845359;77;21654;-79
2021/01/16 11:30:09;;;;;;;5.70;3.60;;;;;;;-8.67;62.43;92538.51;1848474;77;21154;-79
2021/01/16 11:32:38;;;;;;;7.10;3.67;;;;;;;-8.73;61.82;92533.09;1847900;77;21419;-77
2021/01/16 11:35:09;;;;;;;4.43;2.37;;;;;;;-8.75;62.02;92532.63;1848485;77;21166;-78
2021/01/16 11:37:51;;;;;;;2.83;2.00;;;;;;;-8.76;61.68;92531.86;1848199;77;21651;-77
2021/01/16 11:40:26;;;;;;;3.83;2.60;;;;;;;-8.88;61.47;92534.98;1848874;77;21177;-76
2021/01/16 11:43:01;;;;;;;5.70;3.15;;;;;;;-8.97;62.07;92530.72;1860611;76;21164;-76